Terminal Aerodrome Forecast
Issued by NWS Duluth, MN

Home | Current Version | Previous Version | Text Only | Print | Product List | Glossary On
Versions: 1 2 3 4 5 6 7 8 9 10 11 12 13 14 15 16 17 18 19 20
000
FTUS43 KDLH 271737
TAFINL
TAF
KINL 271737Z 2718/2818 15007KT P6SM OVC100
     FM272100 16008KT P6SM VCSH OVC100
     FM280100 09005KT P6SM -SHRA OVC050
     FM280800 06005KT P6SM -SHRA OVC015
     FM281100 04005KT 5SM -DZ OVC007=

USA.gov is the U.S. government's official web portal to all federal, state and local government web resources and services.